sensor_id;sensor_type;location;lat;lon;timestamp;temperature;humidity
108;DHT22;49;48.530;9.200;2022-09-09T00:00:18;21.50;1.00
108;DHT22;49;48.530;9.200;2022-09-09T00:02:54;21.40;1.00
108;DHT22;49;48.530;9.200;2022-09-09T00:05:31;21.20;1.00
108;DHT22;49;48.530;9.200;2022-09-09T00:08:02;21.00;1.00
108;DHT22;49;48.530;9.200;2022-09-09T00:10:33;21.00;1.00
108;DHT22;49;48.530;9.200;2022-09-09T00:13:10;20.80;1.00
108;DHT22;49;48.530;9.200;2022-09-09T00:15:52;20.50;1.00
108;DHT22;49;48.530;9.200;2022-09-09T00:18:25;20.30;1.00
108;DHT22;49;48.530;9.200;2022-09-09T00:21:00;20.40;1.00
108;DHT22;49;48.530;9.200;2022-09-09T00:23:32;20.60;1.00
108;DHT22;49;48.530;9.200;2022-09-09T00:26:06;20.90;1.00
108;DHT22;49;48.530;9.200;2022-09-09T00:28:39;20.90;1.00
108;DHT22;49;48.530;9.200;2022-09-09T00:31:12;20.70;1.00
108;DHT22;49;48.530;9.200;2022-09-09T00:33:40;21.10;1.00
108;DHT22;49;48.530;9.200;2022-09-09T00:36:13;21.10;1.00
108;DHT22;49;48.530;9.200;2022-09-09T00:38:45;21.10;1.00
108;DHT22;49;48.530;9.200;2022-09-09T00:41:20;20.70;1.00
108;DHT22;49;48.530;9.200;2022-09-09T00:43:56;20.60;1.00
108;DHT22;49;48.530;9.200;2022-09-09T00:46:41;20.40;1.00
108;DHT22;49;48.530;9.200;2022-09-09T00:49:20;20.30;1.00
108;DHT22;49;48.530;9.200;2022-09-09T00:51:59;20.40;1.00
108;DHT22;49;48.530;9.200;2022-09-09T00:54:41;20.10;1.00
108;DHT22;49;48.530;9.200;2022-09-09T00:57:22;20.00;1.00
108;DHT22;49;48.530;9.200;2022-09-09T00:59:51;19.80;1.00
108;DHT22;49;48.530;9.200;2022-09-09T01:02:26;19.60;1.00
108;DHT22;49;48.530;9.200;2022-09-09T01:04:54;19.10;1.00
108;DHT22;49;48.530;9.200;2022-09-09T01:07:26;19.00;1.00
108;DHT22;49;48.530;9.200;2022-09-09T01:09:56;19.30;1.00
108;DHT22;49;48.530;9.200;2022-09-09T01:12:35;19.60;1.00
108;DHT22;49;48.530;9.200;2022-09-09T01:15:09;20.00;1.00
108;DHT22;49;48.530;9.200;2022-09-09T01:17:50;20.10;1.00
108;DHT22;49;48.530;9.200;2022-09-09T01:20:24;20.40;1.00
108;DHT22;49;48.530;9.200;2022-09-09T01:23:07;20.30;1.00
108;DHT22;49;48.530;9.200;2022-09-09T01:26:12;20.20;1.00
108;DHT22;49;48.530;9.200;2022-09-09T01:28:44;19.80;1.00
108;DHT22;49;48.530;9.200;2022-09-09T01:31:15;19.80;1.00
108;DHT22;49;48.530;9.200;2022-09-09T01:33:43;19.80;1.00
108;DHT22;49;48.530;9.200;2022-09-09T01:36:16;19.80;1.00
108;DHT22;49;48.530;9.200;2022-09-09T01:38:46;19.80;1.00
108;DHT22;49;48.530;9.200;2022-09-09T01:41:14;19.90;1.00
108;DHT22;49;48.530;9.200;2022-09-09T01:43:41;19.80;1.00
108;DHT22;49;48.530;9.200;2022-09-09T01:46:08;19.80;1.00
108;DHT22;49;48.530;9.200;2022-09-09T01:48:36;20.20;1.00
108;DHT22;49;48.530;9.200;2022-09-09T01:51:03;20.50;1.00
108;DHT22;49;48.530;9.200;2022-09-09T01:53:30;20.70;1.00
108;DHT22;49;48.530;9.200;2022-09-09T01:56:05;20.60;1.00
108;DHT22;49;48.530;9.200;2022-09-09T01:58:47;20.50;1.00
108;DHT22;49;48.530;9.200;2022-09-09T02:01:27;20.50;1.00
108;DHT22;49;48.530;9.200;2022-09-09T02:03:57;20.30;1.00
108;DHT22;49;48.530;9.200;2022-09-09T02:06:28;20.30;1.00
108;DHT22;49;48.530;9.200;2022-09-09T02:09:00;20.40;1.00
108;DHT22;49;48.530;9.200;2022-09-09T02:11:29;20.40;1.00
108;DHT22;49;48.530;9.200;2022-09-09T02:14:01;20.50;1.00
108;DHT22;49;48.530;9.200;2022-09-09T02:16:34;20.40;1.00
108;DHT22;49;48.530;9.200;2022-09-09T02:19:09;20.30;1.00
108;DHT22;49;48.530;9.200;2022-09-09T02:21:40;20.50;1.00
108;DHT22;49;48.530;9.200;2022-09-09T02:24:09;20.50;1.00
108;DHT22;49;48.530;9.200;2022-09-09T02:26:40;20.40;1.00
108;DHT22;49;48.530;9.200;2022-09-09T02:29:15;20.20;1.00
108;DHT22;49;48.530;9.200;2022-09-09T02:31:46;19.90;1.00
108;DHT22;49;48.530;9.200;2022-09-09T02:34:17;20.10;1.00
108;DHT22;49;48.530;9.200;2022-09-09T02:36:47;20.40;1.00
108;DHT22;49;48.530;9.200;2022-09-09T02:39:14;20.50;1.00
108;DHT22;49;48.530;9.200;2022-09-09T02:41:42;20.40;1.00
108;DHT22;49;48.530;9.200;2022-09-09T02:44:13;20.40;1.00
108;DHT22;49;48.530;9.200;2022-09-09T02:47:04;20.40;1.00
108;DHT22;49;48.530;9.200;2022-09-09T02:49:43;20.90;1.00
108;DHT22;49;48.530;9.200;2022-09-09T02:52:14;20.90;1.00
108;DHT22;49;48.530;9.200;2022-09-09T02:54:42;20.60;1.00
108;DHT22;49;48.530;9.200;2022-09-09T02:57:12;20.30;1.00
108;DHT22;49;48.530;9.200;2022-09-09T02:59:43;20.00;1.00
108;DHT22;49;48.530;9.200;2022-09-09T03:02:11;20.30;1.00
108;DHT22;49;48.530;9.200;2022-09-09T03:04:39;20.50;1.00
108;DHT22;49;48.530;9.200;2022-09-09T03:07:07;20.70;1.00
108;DHT22;49;48.530;9.200;2022-09-09T03:09:34;20.90;1.00
108;DHT22;49;48.530;9.200;2022-09-09T03:12:01;20.80;1.00
108;DHT22;49;48.530;9.200;2022-09-09T03:14:29;20.70;1.00
108;DHT22;49;48.530;9.200;2022-09-09T03:16:57;20.70;1.00
108;DHT22;49;48.530;9.200;2022-09-09T03:19:26;20.80;1.00
108;DHT22;49;48.530;9.200;2022-09-09T03:21:55;21.00;1.00
108;DHT22;49;48.530;9.200;2022-09-09T03:24:22;21.00;1.00
108;DHT22;49;48.530;9.200;2022-09-09T03:26:49;20.80;1.00
108;DHT22;49;48.530;9.200;2022-09-09T03:29:16;20.70;1.00
108;DHT22;49;48.530;9.200;2022-09-09T03:31:44;20.20;1.00
108;DHT22;49;48.530;9.200;2022-09-09T03:34:13;19.70;1.00
108;DHT22;49;48.530;9.200;2022-09-09T03:36:40;19.90;1.00
108;DHT22;49;48.530;9.200;2022-09-09T03:39:07;19.80;1.00
108;DHT22;49;48.530;9.200;2022-09-09T03:41:34;19.70;1.00
108;DHT22;49;48.530;9.200;2022-09-09T03:44:03;19.90;1.00
108;DHT22;49;48.530;9.200;2022-09-09T03:46:29;20.10;1.00
108;DHT22;49;48.530;9.200;2022-09-09T03:48:56;20.20;1.00
108;DHT22;49;48.530;9.200;2022-09-09T03:51:25;20.30;1.00
108;DHT22;49;48.530;9.200;2022-09-09T03:53:51;20.40;1.00
108;DHT22;49;48.530;9.200;2022-09-09T03:56:23;20.70;1.00
108;DHT22;49;48.530;9.200;2022-09-09T03:58:50;20.80;1.00
108;DHT22;49;48.530;9.200;2022-09-09T04:01:17;20.80;1.00
108;DHT22;49;48.530;9.200;2022-09-09T04:03:44;21.00;1.00
108;DHT22;49;48.530;9.200;2022-09-09T04:06:12;21.20;1.00
108;DHT22;49;48.530;9.200;2022-09-09T04:08:41;21.30;1.00
108;DHT22;49;48.530;9.200;2022-09-09T04:11:09;21.00;1.00
108;DHT22;49;48.530;9.200;2022-09-09T04:13:37;20.70;1.00
108;DHT22;49;48.530;9.200;2022-09-09T04:16:05;20.70;1.00
108;DHT22;49;48.530;9.200;2022-09-09T04:18:34;20.80;1.00
108;DHT22;49;48.530;9.200;2022-09-09T04:21:01;20.70;1.00
108;DHT22;49;48.530;9.200;2022-09-09T04:23:29;20.50;1.00
108;DHT22;49;48.530;9.200;2022-09-09T04:25:58;20.50;1.00
108;DHT22;49;48.530;9.200;2022-09-09T04:28:28;20.50;1.00
108;DHT22;49;48.530;9.200;2022-09-09T04:30:55;20.20;1.00
108;DHT22;49;48.530;9.200;2022-09-09T04:33:24;20.00;1.00
108;DHT22;49;48.530;9.200;2022-09-09T04:35:52;19.90;1.00
108;DHT22;49;48.530;9.200;2022-09-09T04:38:21;19.80;1.00
108;DHT22;49;48.530;9.200;2022-09-09T04:40:50;19.80;1.00
108;DHT22;49;48.530;9.200;2022-09-09T04:43:21;19.80;1.00
108;DHT22;49;48.530;9.200;2022-09-09T04:45:51;19.60;1.00
108;DHT22;49;48.530;9.200;2022-09-09T04:48:19;19.40;1.00
108;DHT22;49;48.530;9.200;2022-09-09T04:50:57;19.40;1.00
108;DHT22;49;48.530;9.200;2022-09-09T04:53:24;19.60;1.00
108;DHT22;49;48.530;9.200;2022-09-09T04:55:51;19.80;1.00
108;DHT22;49;48.530;9.200;2022-09-09T04:58:19;20.00;1.00
108;DHT22;49;48.530;9.200;2022-09-09T05:00:47;20.20;1.00
108;DHT22;49;48.530;9.200;2022-09-09T05:03:14;20.30;1.00
108;DHT22;49;48.530;9.200;2022-09-09T05:05:41;20.10;1.00
108;DHT22;49;48.530;9.200;2022-09-09T05:08:09;20.00;1.00
108;DHT22;49;48.530;9.200;2022-09-09T05:10:37;20.10;1.00
108;DHT22;49;48.530;9.200;2022-09-09T05:13:05;20.10;1.00
108;DHT22;49;48.530;9.200;2022-09-09T05:15:33;19.90;1.00
108;DHT22;49;48.530;9.200;2022-09-09T05:18:01;20.10;1.00
108;DHT22;49;48.530;9.200;2022-09-09T05:20:28;20.20;1.00
108;DHT22;49;48.530;9.200;2022-09-09T05:22:56;20.20;1.00
108;DHT22;49;48.530;9.200;2022-09-09T05:25:24;20.20;1.00
108;DHT22;49;48.530;9.200;2022-09-09T05:27:51;20.30;1.00
108;DHT22;49;48.530;9.200;2022-09-09T05:30:19;20.50;1.00
108;DHT22;49;48.530;9.200;2022-09-09T05:32:47;20.80;1.00
108;DHT22;49;48.530;9.200;2022-09-09T05:35:14;21.00;1.00
108;DHT22;49;48.530;9.200;2022-09-09T05:37:41;21.30;1.00
108;DHT22;49;48.530;9.200;2022-09-09T05:40:09;21.40;1.00
108;DHT22;49;48.530;9.200;2022-09-09T05:42:36;21.20;1.00
108;DHT22;49;48.530;9.200;2022-09-09T05:45:05;21.00;1.00
108;DHT22;49;48.530;9.200;2022-09-09T05:47:33;20.80;1.00
108;DHT22;49;48.530;9.200;2022-09-09T05:50:01;20.90;1.00
108;DHT22;49;48.530;9.200;2022-09-09T05:52:28;21.00;1.00
108;DHT22;49;48.530;9.200;2022-09-09T05:54:54;21.20;1.00
108;DHT22;49;48.530;9.200;2022-09-09T05:57:22;21.10;1.00
108;DHT22;49;48.530;9.200;2022-09-09T05:59:49;21.10;1.00
108;DHT22;49;48.530;9.200;2022-09-09T06:02:16;20.90;1.00
108;DHT22;49;48.530;9.200;2022-09-09T06:04:43;20.90;1.00
108;DHT22;49;48.530;9.200;2022-09-09T06:07:11;20.90;1.00
108;DHT22;49;48.530;9.200;2022-09-09T06:09:39;21.20;1.00
108;DHT22;49;48.530;9.200;2022-09-09T06:12:07;21.20;1.00
108;DHT22;49;48.530;9.200;2022-09-09T06:14:34;21.20;1.00
108;DHT22;49;48.530;9.200;2022-09-09T06:17:02;21.00;1.00
108;DHT22;49;48.530;9.200;2022-09-09T06:19:29;21.20;1.00
108;DHT22;49;48.530;9.200;2022-09-09T06:21:56;21.30;1.00
108;DHT22;49;48.530;9.200;2022-09-09T06:24:25;21.40;1.00
108;DHT22;49;48.530;9.200;2022-09-09T06:26:52;21.70;1.00
108;DHT22;49;48.530;9.200;2022-09-09T06:29:19;22.10;1.00
108;DHT22;49;48.530;9.200;2022-09-09T06:31:46;22.30;1.00
108;DHT22;49;48.530;9.200;2022-09-09T06:34:13;22.40;1.00
108;DHT22;49;48.530;9.200;2022-09-09T06:36:40;22.70;1.00
108;DHT22;49;48.530;9.200;2022-09-09T06:39:07;23.20;1.00
108;DHT22;49;48.530;9.200;2022-09-09T06:41:38;23.80;1.00
108;DHT22;49;48.530;9.200;2022-09-09T06:44:05;24.70;1.00
108;DHT22;49;48.530;9.200;2022-09-09T06:46:32;25.10;1.00
108;DHT22;49;48.530;9.200;2022-09-09T06:48:59;25.40;1.00
108;DHT22;49;48.530;9.200;2022-09-09T06:51:27;25.80;1.00
108;DHT22;49;48.530;9.200;2022-09-09T06:53:57;26.10;1.00
108;DHT22;49;48.530;9.200;2022-09-09T06:56:27;26.30;1.00
108;DHT22;49;48.530;9.200;2022-09-09T06:58:56;26.30;1.00
108;DHT22;49;48.530;9.200;2022-09-09T07:01:26;25.40;1.00
108;DHT22;49;48.530;9.200;2022-09-09T07:03:55;24.80;1.00
108;DHT22;49;48.530;9.200;2022-09-09T07:06:24;24.60;1.00
108;DHT22;49;48.530;9.200;2022-09-09T07:08:52;24.40;1.00
108;DHT22;49;48.530;9.200;2022-09-09T07:11:20;24.50;1.00
108;DHT22;49;48.530;9.200;2022-09-09T07:13:48;24.10;1.00
108;DHT22;49;48.530;9.200;2022-09-09T07:16:18;24.00;1.00
108;DHT22;49;48.530;9.200;2022-09-09T07:18:45;23.80;1.00
108;DHT22;49;48.530;9.200;2022-09-09T07:21:14;24.00;1.00
108;DHT22;49;48.530;9.200;2022-09-09T07:23:41;24.10;1.00
108;DHT22;49;48.530;9.200;2022-09-09T07:26:09;24.30;1.00
108;DHT22;49;48.530;9.200;2022-09-09T07:28:36;24.30;1.00
108;DHT22;49;48.530;9.200;2022-09-09T07:31:04;24.00;1.00
108;DHT22;49;48.530;9.200;2022-09-09T07:33:34;23.90;1.00
108;DHT22;49;48.530;9.200;2022-09-09T07:36:07;24.50;1.00
108;DHT22;49;48.530;9.200;2022-09-09T07:38:38;25.50;1.00
108;DHT22;49;48.530;9.200;2022-09-09T07:41:07;26.40;1.00
108;DHT22;49;48.530;9.200;2022-09-09T07:43:37;26.50;1.00
108;DHT22;49;48.530;9.200;2022-09-09T07:46:04;26.60;1.00
108;DHT22;49;48.530;9.200;2022-09-09T07:48:32;26.90;1.00
108;DHT22;49;48.530;9.200;2022-09-09T07:51:04;27.30;1.00
108;DHT22;49;48.530;9.200;2022-09-09T07:53:32;27.40;1.00
108;DHT22;49;48.530;9.200;2022-09-09T07:56:03;26.70;1.00
108;DHT22;49;48.530;9.200;2022-09-09T07:58:29;26.50;1.00
108;DHT22;49;48.530;9.200;2022-09-09T08:00:56;26.10;1.00
108;DHT22;49;48.530;9.200;2022-09-09T08:03:24;25.40;1.00
108;DHT22;49;48.530;9.200;2022-09-09T08:05:52;25.10;1.00
108;DHT22;49;48.530;9.200;2022-09-09T08:08:19;25.50;1.00
108;DHT22;49;48.530;9.200;2022-09-09T08:10:46;26.10;1.00
108;DHT22;49;48.530;9.200;2022-09-09T08:13:13;27.00;1.00
108;DHT22;49;48.530;9.200;2022-09-09T08:15:40;28.00;1.00
108;DHT22;49;48.530;9.200;2022-09-09T08:18:07;28.60;1.00
108;DHT22;49;48.530;9.200;2022-09-09T08:20:36;28.80;1.00
108;DHT22;49;48.530;9.200;2022-09-09T08:23:04;28.30;1.00
108;DHT22;49;48.530;9.200;2022-09-09T08:25:31;27.60;1.00
108;DHT22;49;48.530;9.200;2022-09-09T08:28:00;27.00;1.00
108;DHT22;49;48.530;9.200;2022-09-09T08:30:28;26.10;1.00
108;DHT22;49;48.530;9.200;2022-09-09T08:32:55;26.20;1.00
108;DHT22;49;48.530;9.200;2022-09-09T08:35:22;26.20;1.00
108;DHT22;49;48.530;9.200;2022-09-09T08:37:53;26.30;1.00
108;DHT22;49;48.530;9.200;2022-09-09T08:40:29;26.20;1.00
108;DHT22;49;48.530;9.200;2022-09-09T08:43:02;26.20;1.00
108;DHT22;49;48.530;9.200;2022-09-09T08:45:35;26.60;1.00
108;DHT22;49;48.530;9.200;2022-09-09T08:48:25;26.20;1.00
108;DHT22;49;48.530;9.200;2022-09-09T08:50:55;26.00;1.00
108;DHT22;49;48.530;9.200;2022-09-09T08:53:29;26.30;1.00
108;DHT22;49;48.530;9.200;2022-09-09T08:56:09;26.40;1.00
108;DHT22;49;48.530;9.200;2022-09-09T08:58:45;25.50;1.00
108;DHT22;49;48.530;9.200;2022-09-09T09:01:38;24.40;1.00
108;DHT22;49;48.530;9.200;2022-09-09T09:04:21;23.60;1.00
108;DHT22;49;48.530;9.200;2022-09-09T09:07:03;23.10;1.00
108;DHT22;49;48.530;9.200;2022-09-09T09:09:38;23.60;1.00
108;DHT22;49;48.530;9.200;2022-09-09T09:12:16;24.10;1.00
108;DHT22;49;48.530;9.200;2022-09-09T09:14:44;24.70;1.00
108;DHT22;49;48.530;9.200;2022-09-09T09:17:14;24.80;1.00
108;DHT22;49;48.530;9.200;2022-09-09T09:19:44;24.90;1.00
108;DHT22;49;48.530;9.200;2022-09-09T09:22:17;25.10;1.00
108;DHT22;49;48.530;9.200;2022-09-09T09:24:52;24.60;1.00
108;DHT22;49;48.530;9.200;2022-09-09T09:27:31;24.60;1.00
108;DHT22;49;48.530;9.200;2022-09-09T09:30:01;25.00;1.00
108;DHT22;49;48.530;9.200;2022-09-09T09:32:35;25.40;1.00
108;DHT22;49;48.530;9.200;2022-09-09T09:35:09;25.80;1.00
108;DHT22;49;48.530;9.200;2022-09-09T09:37:40;25.60;1.00
108;DHT22;49;48.530;9.200;2022-09-09T09:40:10;25.60;1.00
108;DHT22;49;48.530;9.200;2022-09-09T09:42:49;24.90;1.00
108;DHT22;49;48.530;9.200;2022-09-09T09:45:32;24.40;1.00
108;DHT22;49;48.530;9.200;2022-09-09T09:48:00;24.30;1.00
108;DHT22;49;48.530;9.200;2022-09-09T09:50:28;24.70;1.00
108;DHT22;49;48.530;9.200;2022-09-09T09:52:56;24.80;1.00
108;DHT22;49;48.530;9.200;2022-09-09T09:55:23;25.30;1.00
108;DHT22;49;48.530;9.200;2022-09-09T09:57:52;25.60;1.00
108;DHT22;49;48.530;9.200;2022-09-09T10:00:21;26.00;1.00
108;DHT22;49;48.530;9.200;2022-09-09T10:02:49;26.00;1.00
108;DHT22;49;48.530;9.200;2022-09-09T10:05:20;25.80;1.00
108;DHT22;49;48.530;9.200;2022-09-09T10:08:00;25.90;1.00
108;DHT22;49;48.530;9.200;2022-09-09T10:10:37;25.90;1.00
108;DHT22;49;48.530;9.200;2022-09-09T10:13:14;25.50;1.00
108;DHT22;49;48.530;9.200;2022-09-09T10:15:49;25.30;1.00
108;DHT22;49;48.530;9.200;2022-09-09T10:18:34;24.80;1.00
108;DHT22;49;48.530;9.200;2022-09-09T10:21:11;24.10;1.00
108;DHT22;49;48.530;9.200;2022-09-09T10:23:58;23.80;1.00
108;DHT22;49;48.530;9.200;2022-09-09T10:26:35;23.80;1.00
108;DHT22;49;48.530;9.200;2022-09-09T10:29:30;24.40;1.00
108;DHT22;49;48.530;9.200;2022-09-09T10:32:10;25.00;1.00
108;DHT22;49;48.530;9.200;2022-09-09T10:34:56;25.00;1.00
108;DHT22;49;48.530;9.200;2022-09-09T10:37:41;25.00;1.00
108;DHT22;49;48.530;9.200;2022-09-09T10:40:32;25.70;1.00
108;DHT22;49;48.530;9.200;2022-09-09T10:43:09;26.00;1.00
108;DHT22;49;48.530;9.200;2022-09-09T10:45:49;25.00;1.00
108;DHT22;49;48.530;9.200;2022-09-09T10:48:35;24.60;1.00
108;DHT22;49;48.530;9.200;2022-09-09T10:51:17;24.40;1.00
108;DHT22;49;48.530;9.200;2022-09-09T10:53:57;24.40;1.00
108;DHT22;49;48.530;9.200;2022-09-09T10:56:29;25.10;1.00
108;DHT22;49;48.530;9.200;2022-09-09T10:59:00;25.70;1.00
108;DHT22;49;48.530;9.200;2022-09-09T11:01:33;25.90;1.00
108;DHT22;49;48.530;9.200;2022-09-09T11:04:12;25.10;1.00
108;DHT22;49;48.530;9.200;2022-09-09T11:06:45;24.90;1.00
108;DHT22;49;48.530;9.200;2022-09-09T11:09:16;25.10;1.00
108;DHT22;49;48.530;9.200;2022-09-09T11:11:51;25.40;1.00
108;DHT22;49;48.530;9.200;2022-09-09T11:14:22;25.70;1.00
108;DHT22;49;48.530;9.200;2022-09-09T11:16:57;25.70;1.00
108;DHT22;49;48.530;9.200;2022-09-09T11:19:32;25.40;1.00
108;DHT22;49;48.530;9.200;2022-09-09T11:22:03;25.50;1.00
108;DHT22;49;48.530;9.200;2022-09-09T11:24:36;25.50;1.00
108;DHT22;49;48.530;9.200;2022-09-09T11:27:10;25.60;1.00
108;DHT22;49;48.530;9.200;2022-09-09T11:30:17;26.10;1.00
108;DHT22;49;48.530;9.200;2022-09-09T11:35:53;24.50;1.00
108;DHT22;49;48.530;9.200;2022-09-09T11:38:26;24.10;1.00
108;DHT22;49;48.530;9.200;2022-09-09T11:40:56;24.00;1.00
108;DHT22;49;48.530;9.200;2022-09-09T11:43:28;24.40;1.00
108;DHT22;49;48.530;9.200;2022-09-09T11:45:59;24.40;1.00
108;DHT22;49;48.530;9.200;2022-09-09T11:48:35;24.20;1.00
108;DHT22;49;48.530;9.200;2022-09-09T11:51:05;24.10;1.00
108;DHT22;49;48.530;9.200;2022-09-09T11:53:34;24.30;1.00
108;DHT22;49;48.530;9.200;2022-09-09T11:56:04;24.40;1.00
108;DHT22;49;48.530;9.200;2022-09-09T11:58:40;24.90;1.00
108;DHT22;49;48.530;9.200;2022-09-09T12:01:34;25.20;1.00
108;DHT22;49;48.530;9.200;2022-09-09T12:04:34;25.30;1.00
108;DHT22;49;48.530;9.200;2022-09-09T12:07:04;25.50;1.00
108;DHT22;49;48.530;9.200;2022-09-09T12:09:43;25.40;1.00
108;DHT22;49;48.530;9.200;2022-09-09T12:12:36;25.10;1.00
108;DHT22;49;48.530;9.200;2022-09-09T12:15:20;25.10;1.00
108;DHT22;49;48.530;9.200;2022-09-09T12:17:48;24.70;1.00
108;DHT22;49;48.530;9.200;2022-09-09T12:20:19;24.90;1.00
108;DHT22;49;48.530;9.200;2022-09-09T12:23:06;24.70;1.00
108;DHT22;49;48.530;9.200;2022-09-09T12:25:56;25.00;1.00
108;DHT22;49;48.530;9.200;2022-09-09T12:28:32;24.90;1.00
108;DHT22;49;48.530;9.200;2022-09-09T12:31:10;25.00;1.00
108;DHT22;49;48.530;9.200;2022-09-09T12:33:44;25.20;1.00
108;DHT22;49;48.530;9.200;2022-09-09T12:36:16;25.00;1.00
108;DHT22;49;48.530;9.200;2022-09-09T12:38:45;25.30;1.00
108;DHT22;49;48.530;9.200;2022-09-09T12:41:20;25.70;1.00
108;DHT22;49;48.530;9.200;2022-09-09T12:43:47;25.80;1.00
108;DHT22;49;48.530;9.200;2022-09-09T12:46:23;25.70;1.00
108;DHT22;49;48.530;9.200;2022-09-09T12:48:53;25.20;1.00
108;DHT22;49;48.530;9.200;2022-09-09T12:51:25;25.20;1.00
108;DHT22;49;48.530;9.200;2022-09-09T12:53:54;25.10;1.00
108;DHT22;49;48.530;9.200;2022-09-09T12:56:24;25.00;1.00
108;DHT22;49;48.530;9.200;2022-09-09T12:58:53;24.90;1.00
108;DHT22;49;48.530;9.200;2022-09-09T13:01:23;24.90;1.00
108;DHT22;49;48.530;9.200;2022-09-09T13:03:50;24.90;1.00
108;DHT22;49;48.530;9.200;2022-09-09T13:06:22;24.90;1.00
108;DHT22;49;48.530;9.200;2022-09-09T13:08:50;25.10;1.00
108;DHT22;49;48.530;9.200;2022-09-09T13:11:20;25.30;1.00
108;DHT22;49;48.530;9.200;2022-09-09T13:13:51;25.50;1.00
108;DHT22;49;48.530;9.200;2022-09-09T13:16:22;25.50;1.00
108;DHT22;49;48.530;9.200;2022-09-09T13:18:49;25.60;1.00
108;DHT22;49;48.530;9.200;2022-09-09T13:21:17;25.50;1.00
108;DHT22;49;48.530;9.200;2022-09-09T13:23:50;25.80;1.00
108;DHT22;49;48.530;9.200;2022-09-09T13:26:22;25.90;1.00
108;DHT22;49;48.530;9.200;2022-09-09T13:28:50;25.40;1.00
108;DHT22;49;48.530;9.200;2022-09-09T13:31:22;25.50;1.00
108;DHT22;49;48.530;9.200;2022-09-09T13:33:49;25.60;1.00
108;DHT22;49;48.530;9.200;2022-09-09T13:36:28;25.40;1.00
108;DHT22;49;48.530;9.200;2022-09-09T13:38:59;25.10;1.00
108;DHT22;49;48.530;9.200;2022-09-09T13:41:31;24.90;1.00
108;DHT22;49;48.530;9.200;2022-09-09T13:43:59;24.60;1.00
108;DHT22;49;48.530;9.200;2022-09-09T13:46:32;24.70;1.00
108;DHT22;49;48.530;9.200;2022-09-09T13:49:01;24.60;1.00
108;DHT22;49;48.530;9.200;2022-09-09T13:51:35;24.50;1.00
108;DHT22;49;48.530;9.200;2022-09-09T13:54:04;24.70;1.00
108;DHT22;49;48.530;9.200;2022-09-09T13:56:32;24.60;1.00
108;DHT22;49;48.530;9.200;2022-09-09T13:58:59;24.60;1.00
108;DHT22;49;48.530;9.200;2022-09-09T14:01:26;24.50;1.00
108;DHT22;49;48.530;9.200;2022-09-09T14:03:54;24.50;1.00
108;DHT22;49;48.530;9.200;2022-09-09T14:06:21;24.80;1.00
108;DHT22;49;48.530;9.200;2022-09-09T14:08:50;24.90;1.00
108;DHT22;49;48.530;9.200;2022-09-09T14:11:18;25.20;1.00
108;DHT22;49;48.530;9.200;2022-09-09T14:13:46;25.30;1.00
108;DHT22;49;48.530;9.200;2022-09-09T14:16:15;24.90;1.00
108;DHT22;49;48.530;9.200;2022-09-09T14:18:42;25.00;1.00
108;DHT22;49;48.530;9.200;2022-09-09T14:21:11;25.10;1.00
108;DHT22;49;48.530;9.200;2022-09-09T14:23:38;24.90;1.00
108;DHT22;49;48.530;9.200;2022-09-09T14:26:06;24.80;1.00
108;DHT22;49;48.530;9.200;2022-09-09T14:28:35;24.90;1.00
108;DHT22;49;48.530;9.200;2022-09-09T14:31:04;24.90;1.00
108;DHT22;49;48.530;9.200;2022-09-09T14:33:31;24.80;1.00
108;DHT22;49;48.530;9.200;2022-09-09T14:35:59;24.90;1.00
108;DHT22;49;48.530;9.200;2022-09-09T14:38:29;25.00;1.00
108;DHT22;49;48.530;9.200;2022-09-09T14:40:56;25.00;1.00
108;DHT22;49;48.530;9.200;2022-09-09T14:43:24;24.90;1.00
108;DHT22;49;48.530;9.200;2022-09-09T14:45:53;25.00;1.00
108;DHT22;49;48.530;9.200;2022-09-09T14:48:19;25.10;1.00
108;DHT22;49;48.530;9.200;2022-09-09T14:50:46;25.20;1.00
108;DHT22;49;48.530;9.200;2022-09-09T14:53:16;25.50;1.00
108;DHT22;49;48.530;9.200;2022-09-09T14:55:43;25.50;1.00
108;DHT22;49;48.530;9.200;2022-09-09T14:58:12;25.40;1.00
108;DHT22;49;48.530;9.200;2022-09-09T15:00:39;25.40;1.00
108;DHT22;49;48.530;9.200;2022-09-09T15:03:09;25.30;1.00
108;DHT22;49;48.530;9.200;2022-09-09T15:05:36;25.30;1.00
108;DHT22;49;48.530;9.200;2022-09-09T15:08:03;25.30;1.00
108;DHT22;49;48.530;9.200;2022-09-09T15:10:30;24.60;1.00
108;DHT22;49;48.530;9.200;2022-09-09T15:12:58;24.70;1.00
108;DHT22;49;48.530;9.200;2022-09-09T15:15:25;24.80;1.00
108;DHT22;49;48.530;9.200;2022-09-09T15:17:52;24.20;1.00
108;DHT22;49;48.530;9.200;2022-09-09T15:20:20;24.20;1.00
108;DHT22;49;48.530;9.200;2022-09-09T15:22:47;24.70;1.00
108;DHT22;49;48.530;9.200;2022-09-09T15:25:14;24.70;1.00
108;DHT22;49;48.530;9.200;2022-09-09T15:27:42;24.40;1.00
108;DHT22;49;48.530;9.200;2022-09-09T15:30:10;24.40;1.00
108;DHT22;49;48.530;9.200;2022-09-09T15:32:37;24.50;1.00
108;DHT22;49;48.530;9.200;2022-09-09T15:35:06;24.60;1.00
108;DHT22;49;48.530;9.200;2022-09-09T15:37:34;24.40;1.00
108;DHT22;49;48.530;9.200;2022-09-09T15:40:01;24.20;1.00
108;DHT22;49;48.530;9.200;2022-09-09T15:42:28;24.20;1.00
108;DHT22;49;48.530;9.200;2022-09-09T15:44:55;24.00;1.00
108;DHT22;49;48.530;9.200;2022-09-09T15:47:22;23.70;1.00
108;DHT22;49;48.530;9.200;2022-09-09T15:49:49;23.30;1.00
108;DHT22;49;48.530;9.200;2022-09-09T15:52:16;23.40;1.00
108;DHT22;49;48.530;9.200;2022-09-09T15:54:44;23.50;1.00
108;DHT22;49;48.530;9.200;2022-09-09T15:57:12;24.00;1.00
108;DHT22;49;48.530;9.200;2022-09-09T15:59:39;23.80;1.00
108;DHT22;49;48.530;9.200;2022-09-09T16:02:06;23.60;1.00
108;DHT22;49;48.530;9.200;2022-09-09T16:04:33;23.20;1.00
108;DHT22;49;48.530;9.200;2022-09-09T16:07:02;23.00;1.00
108;DHT22;49;48.530;9.200;2022-09-09T16:09:30;23.30;1.00
108;DHT22;49;48.530;9.200;2022-09-09T16:11:59;23.20;1.00
108;DHT22;49;48.530;9.200;2022-09-09T16:14:28;23.10;1.00
108;DHT22;49;48.530;9.200;2022-09-09T16:16:59;23.30;1.00
108;DHT22;49;48.530;9.200;2022-09-09T16:19:26;23.60;1.00
108;DHT22;49;48.530;9.200;2022-09-09T16:21:53;23.80;1.00
108;DHT22;49;48.530;9.200;2022-09-09T16:24:20;24.10;1.00
108;DHT22;49;48.530;9.200;2022-09-09T16:26:49;24.20;1.00
108;DHT22;49;48.530;9.200;2022-09-09T16:29:19;24.20;1.00
108;DHT22;49;48.530;9.200;2022-09-09T16:31:47;24.00;1.00
108;DHT22;49;48.530;9.200;2022-09-09T16:34:15;24.10;1.00
108;DHT22;49;48.530;9.200;2022-09-09T16:36:43;24.10;1.00
108;DHT22;49;48.530;9.200;2022-09-09T16:39:13;23.50;1.00
108;DHT22;49;48.530;9.200;2022-09-09T16:41:42;23.40;1.00
108;DHT22;49;48.530;9.200;2022-09-09T16:44:11;23.30;1.00
108;DHT22;49;48.530;9.200;2022-09-09T16:46:41;23.10;1.00
108;DHT22;49;48.530;9.200;2022-09-09T16:49:10;23.10;1.00
108;DHT22;49;48.530;9.200;2022-09-09T16:51:39;23.20;1.00
108;DHT22;49;48.530;9.200;2022-09-09T16:54:08;22.90;1.00
108;DHT22;49;48.530;9.200;2022-09-09T16:56:37;22.70;1.00
108;DHT22;49;48.530;9.200;2022-09-09T16:59:06;22.60;1.00
108;DHT22;49;48.530;9.200;2022-09-09T17:01:35;22.60;1.00
108;DHT22;49;48.530;9.200;2022-09-09T17:04:07;22.70;1.00
108;DHT22;49;48.530;9.200;2022-09-09T17:06:35;22.80;1.00
108;DHT22;49;48.530;9.200;2022-09-09T17:09:04;22.90;1.00
108;DHT22;49;48.530;9.200;2022-09-09T17:11:32;22.90;1.00
108;DHT22;49;48.530;9.200;2022-09-09T17:14:00;23.00;1.00
108;DHT22;49;48.530;9.200;2022-09-09T17:16:30;23.10;1.00
108;DHT22;49;48.530;9.200;2022-09-09T17:19:00;23.00;1.00
108;DHT22;49;48.530;9.200;2022-09-09T17:21:31;22.60;1.00
108;DHT22;49;48.530;9.200;2022-09-09T17:23:58;22.80;1.00
108;DHT22;49;48.530;9.200;2022-09-09T17:26:27;22.70;1.00
108;DHT22;49;48.530;9.200;2022-09-09T17:28:55;22.70;1.00
108;DHT22;49;48.530;9.200;2022-09-09T17:31:23;22.70;1.00
108;DHT22;49;48.530;9.200;2022-09-09T17:33:51;22.80;1.00
108;DHT22;49;48.530;9.200;2022-09-09T17:36:20;22.90;1.00